createdAt,value
2018-07-28T00:00:48.555Z,77.40
2018-07-28T00:03:19.854Z,78.10
2018-07-28T00:05:51.177Z,79.70
2018-07-28T00:08:22.567Z,80.10
2018-07-28T00:10:53.843Z,80.80
2018-07-28T00:13:25.162Z,82.20
2018-07-28T00:15:56.385Z,83.20
2018-07-28T00:18:27.771Z,84.30
2018-07-28T00:20:59.626Z,85.80
2018-07-28T00:23:30.970Z,87.70
2018-07-28T00:26:06.960Z,87.30
2018-07-28T00:28:38.323Z,88.20
2018-07-28T00:31:09.880Z,90.00
2018-07-28T00:33:41.225Z,90.40
2018-07-28T00:36:12.816Z,91.30
2018-07-28T00:38:44.264Z,91.90
2018-07-28T00:41:15.611Z,93.00
2018-07-28T00:43:47.175Z,93.70
2018-07-28T00:46:18.626Z,94.50
2018-07-28T00:48:49.812Z,95.50
2018-07-28T00:51:21.314Z,96.50
2018-07-28T00:53:53.179Z,97.90
2018-07-28T00:56:24.798Z,99.60
2018-07-28T00:58:57.735Z,99.90
2018-07-28T01:01:28.952Z,99.90
2018-07-28T01:04:00.242Z,99.90
2018-07-28T01:06:31.559Z,99.90
2018-07-28T01:09:03.261Z,99.90
2018-07-28T01:16:36.032Z,99.90
2018-07-28T01:19:07.410Z,99.90
2018-07-28T01:21:38.723Z,99.90
2018-07-28T01:24:10.433Z,99.90
2018-07-28T01:26:41.702Z,99.90
2018-07-28T01:29:18.548Z,99.90
2018-07-28T01:31:50.861Z,99.90
2018-07-28T01:34:22.047Z,99.90
2018-07-28T01:36:53.493Z,99.90
2018-07-28T01:39:25.311Z,99.90
2018-07-28T01:41:56.995Z,99.90
2018-07-28T01:44:28.308Z,99.90
2018-07-28T01:47:00.379Z,99.90
2018-07-28T01:49:31.821Z,99.90
2018-07-28T01:52:03.113Z,99.90
2018-07-28T01:54:34.396Z,99.90
2018-07-28T01:57:05.720Z,99.90
2018-07-28T01:59:37.034Z,99.90
2018-07-28T02:02:08.437Z,99.90
2018-07-28T02:04:39.975Z,99.90
2018-07-28T02:07:11.711Z,99.90
2018-07-28T02:09:43.279Z,99.90
2018-07-28T02:12:14.654Z,99.90
2018-07-28T02:14:46.744Z,99.90
2018-07-28T02:17:18.007Z,99.90
2018-07-28T02:19:49.271Z,99.90
2018-07-28T02:22:20.634Z,99.90
2018-07-28T02:24:51.843Z,99.90
2018-07-28T02:27:23.179Z,99.90
2018-07-28T02:29:54.304Z,99.90
2018-07-28T02:32:25.818Z,99.90
2018-07-28T02:34:57.010Z,99.90
2018-07-28T02:37:28.138Z,99.90
2018-07-28T02:39:59.491Z,99.90
2018-07-28T02:42:30.777Z,99.90
2018-07-28T02:45:01.940Z,99.90
2018-07-28T02:47:33.138Z,99.90
2018-07-28T02:50:04.740Z,99.90
2018-07-28T02:52:36.013Z,99.90
2018-07-28T02:55:08.866Z,99.90
2018-07-28T02:57:40.221Z,99.90
2018-07-28T03:00:12.268Z,99.90
2018-07-28T03:05:13.878Z,99.90
2018-07-28T03:10:15.231Z,99.90
2018-07-28T03:12:46.503Z,99.90
2018-07-28T03:15:34.172Z,99.90
2018-07-28T03:18:06.709Z,99.90
2018-07-28T03:20:38.028Z,99.90
2018-07-28T03:23:09.187Z,99.90
2018-07-28T03:25:40.468Z,99.90
2018-07-28T03:28:11.727Z,99.90
2018-07-28T03:30:42.914Z,99.90
2018-07-28T03:33:14.196Z,99.90
2018-07-28T03:35:45.262Z,99.90
2018-07-28T03:38:16.521Z,99.90
2018-07-28T03:40:47.785Z,99.90
2018-07-28T03:43:19.110Z,99.90
2018-07-28T03:45:50.305Z,99.90
2018-07-28T03:48:21.600Z,99.90
2018-07-28T03:50:52.867Z,99.90
2018-07-28T03:53:24.127Z,99.90
2018-07-28T03:55:55.296Z,99.90
2018-07-28T03:58:26.392Z,99.90
2018-07-28T04:00:57.768Z,99.90
2018-07-28T04:03:29.018Z,99.90
2018-07-28T04:06:00.239Z,99.90
2018-07-28T04:08:31.357Z,99.90
2018-07-28T04:11:02.663Z,99.90
2018-07-28T04:13:33.956Z,99.90
2018-07-28T04:16:05.380Z,99.90
2018-07-28T04:18:36.610Z,99.90
2018-07-28T04:21:08.231Z,99.90
2018-07-28T04:26:09.966Z,99.90
2018-07-28T04:28:41.377Z,99.90
2018-07-28T04:31:12.659Z,99.90
2018-07-28T04:33:43.858Z,99.90
2018-07-28T04:36:15.138Z,99.90
2018-07-28T04:38:46.477Z,99.90
2018-07-28T04:41:17.795Z,99.90
2018-07-28T04:43:49.049Z,99.90
2018-07-28T04:46:20.192Z,99.90
2018-07-28T04:48:51.543Z,99.90
2018-07-28T04:51:22.891Z,99.90
2018-07-28T04:53:54.217Z,99.90
2018-07-28T04:56:25.699Z,99.90
2018-07-28T04:58:56.900Z,99.90
2018-07-28T05:01:28.194Z,99.90
2018-07-28T05:03:59.730Z,99.90
2018-07-28T05:06:30.847Z,99.90
2018-07-28T05:09:02.106Z,99.90
2018-07-28T05:11:33.479Z,99.90
2018-07-28T05:16:35.140Z,99.90
2018-07-28T05:19:06.748Z,99.90
2018-07-28T05:21:38.092Z,99.90
2018-07-28T05:24:09.684Z,99.90
2018-07-28T05:26:41.247Z,99.90
2018-07-28T05:29:12.667Z,99.90
2018-07-28T05:31:44.047Z,99.90
2018-07-28T05:34:15.297Z,99.90
2018-07-28T05:36:46.469Z,99.90
2018-07-28T05:39:17.598Z,99.90
2018-07-28T05:41:49.006Z,99.90
2018-07-28T05:44:20.366Z,99.90
2018-07-28T05:46:51.706Z,99.90
2018-07-28T05:49:23.016Z,99.90
2018-07-28T05:51:54.299Z,99.90
2018-07-28T05:54:25.562Z,99.90
2018-07-28T05:56:56.918Z,99.90
2018-07-28T05:59:28.178Z,99.90
2018-07-28T06:01:59.551Z,99.90
2018-07-28T06:04:30.902Z,99.90
2018-07-28T06:07:02.255Z,99.90
2018-07-28T06:09:33.418Z,99.90
2018-07-28T06:12:04.836Z,99.90
2018-07-28T06:14:36.154Z,99.90
2018-07-28T06:17:07.663Z,99.90
2018-07-28T06:19:39.280Z,99.90
2018-07-28T06:22:10.492Z,99.90
2018-07-28T06:24:41.812Z,99.90
2018-07-28T06:27:13.505Z,99.90
2018-07-28T06:29:44.855Z,99.90
2018-07-28T06:32:16.295Z,99.90
2018-07-28T06:34:47.518Z,99.90
2018-07-28T06:37:18.849Z,99.90
2018-07-28T06:39:50.077Z,99.90
2018-07-28T06:42:21.284Z,99.90
2018-07-28T06:44:52.463Z,99.90
2018-07-28T06:47:23.686Z,99.90
2018-07-28T06:49:54.982Z,99.90
2018-07-28T06:52:26.246Z,99.90
2018-07-28T06:54:57.690Z,99.90
2018-07-28T06:57:28.956Z,99.90
2018-07-28T07:00:00.234Z,99.90
2018-07-28T07:02:31.553Z,99.90
2018-07-28T07:05:02.688Z,99.90
2018-07-28T07:07:33.931Z,99.90
2018-07-28T07:10:05.468Z,99.90
2018-07-28T07:12:36.883Z,99.90
2018-07-28T07:15:08.964Z,99.90
2018-07-28T07:17:40.208Z,99.90
2018-07-28T07:20:11.491Z,99.90
2018-07-28T07:22:42.672Z,99.90
2018-07-28T07:25:13.893Z,99.90
2018-07-28T07:27:45.163Z,99.90
2018-07-28T07:30:16.481Z,99.90
2018-07-28T07:32:47.711Z,99.90
2018-07-28T07:35:18.935Z,99.90
2018-07-28T07:37:50.344Z,99.90
2018-07-28T07:42:51.872Z,99.90
2018-07-28T07:45:23.246Z,99.90
2018-07-28T07:47:56.166Z,99.90
2018-07-28T07:50:27.420Z,99.90
2018-07-28T07:52:58.774Z,99.90
2018-07-28T07:55:30.540Z,99.90
2018-07-28T07:58:01.797Z,99.90
2018-07-28T08:00:33.071Z,99.90
2018-07-28T08:03:04.260Z,99.90
2018-07-28T08:05:35.417Z,99.90
2018-07-28T08:08:06.657Z,99.90
2018-07-28T08:10:37.919Z,99.90
2018-07-28T08:13:09.312Z,99.90
2018-07-28T08:15:40.598Z,99.90
2018-07-28T08:18:11.917Z,99.90
2018-07-28T08:20:43.261Z,99.90
2018-07-28T08:23:14.562Z,99.90
2018-07-28T08:25:45.756Z,99.90
2018-07-28T08:28:17.287Z,99.90
2018-07-28T08:30:48.437Z,99.90
2018-07-28T08:33:19.819Z,99.90
2018-07-28T08:35:51.110Z,99.90
2018-07-28T08:38:22.432Z,99.90
2018-07-28T08:40:53.739Z,99.90
2018-07-28T08:43:24.906Z,99.90
2018-07-28T08:45:56.119Z,99.90
2018-07-28T08:48:27.242Z,99.90
2018-07-28T08:50:58.598Z,99.90
2018-07-28T08:53:29.907Z,99.90
2018-07-28T08:56:01.299Z,99.90
2018-07-28T08:58:32.618Z,99.90
2018-07-28T09:01:03.910Z,99.90
2018-07-28T09:03:35.209Z,99.90
2018-07-28T09:06:06.733Z,99.90
2018-07-28T09:08:37.937Z,99.90
2018-07-28T09:11:09.292Z,99.90
2018-07-28T09:13:40.466Z,99.90
2018-07-28T09:16:11.721Z,99.90
2018-07-28T09:18:42.827Z,99.90
2018-07-28T09:21:14.091Z,99.90
2018-07-28T09:23:45.340Z,99.90
2018-07-28T09:26:16.675Z,99.90
2018-07-28T09:28:48.023Z,99.90
2018-07-28T09:31:19.409Z,99.90
2018-07-28T09:33:50.622Z,99.90
2018-07-28T09:36:21.923Z,99.90
2018-07-28T09:38:53.119Z,99.90
2018-07-28T09:41:24.240Z,99.90
2018-07-28T09:43:55.594Z,99.90
2018-07-28T09:46:26.915Z,99.90
2018-07-28T09:48:58.454Z,99.90
2018-07-28T09:51:29.869Z,99.90
2018-07-28T09:54:01.310Z,99.90
2018-07-28T09:56:32.576Z,99.90
2018-07-28T09:59:03.892Z,99.90
2018-07-28T10:01:35.623Z,99.90
2018-07-28T10:04:07.038Z,99.90
2018-07-28T10:06:38.210Z,99.90
2018-07-28T10:09:12.319Z,99.90
2018-07-28T10:11:43.656Z,99.90
2018-07-28T10:14:14.902Z,99.90
2018-07-28T10:16:46.197Z,99.90
2018-07-28T10:19:17.455Z,99.90
2018-07-28T10:21:48.731Z,99.90
2018-07-28T10:24:19.936Z,99.90
2018-07-28T10:26:51.206Z,99.90
2018-07-28T10:29:22.362Z,99.90
2018-07-28T10:31:53.580Z,99.90
2018-07-28T10:34:24.967Z,99.90
2018-07-28T10:36:56.256Z,99.90
2018-07-28T10:39:27.794Z,99.90
2018-07-28T10:41:59.033Z,99.90
2018-07-28T10:44:30.309Z,99.90
2018-07-28T10:47:01.524Z,99.90
2018-07-28T10:49:33.109Z,99.90
2018-07-28T10:52:04.323Z,99.90
2018-07-28T10:54:35.553Z,99.90
2018-07-28T10:57:06.794Z,99.90
2018-07-28T10:59:37.947Z,99.90
2018-07-28T11:02:09.195Z,99.90
2018-07-28T11:04:40.383Z,99.90
2018-07-28T11:07:11.650Z,99.90
2018-07-28T11:09:42.931Z,99.90
2018-07-28T11:12:14.235Z,99.90
2018-07-28T11:14:45.623Z,99.90
2018-07-28T11:17:16.892Z,99.90
2018-07-28T11:19:48.039Z,99.90
2018-07-28T11:22:19.345Z,99.90
2018-07-28T11:24:50.575Z,99.90
2018-07-28T11:27:21.888Z,99.90
2018-07-28T11:29:53.138Z,99.90
2018-07-28T11:32:34.115Z,99.90
2018-07-28T11:35:15.220Z,99.90
2018-07-28T11:38:04.703Z,99.90
2018-07-28T11:41:42.956Z,99.90
2018-07-28T11:44:24.098Z,99.90
2018-07-28T11:46:55.231Z,99.90
2018-07-28T11:49:26.555Z,99.90
2018-07-28T11:51:57.824Z,99.90
2018-07-28T11:54:29.190Z,99.90
2018-07-28T11:57:00.392Z,99.90
2018-07-28T11:59:31.636Z,99.90
2018-07-28T12:02:02.907Z,99.90
2018-07-28T12:04:34.210Z,99.90
2018-07-28T12:07:05.658Z,99.90
2018-07-28T12:09:37.215Z,99.90
2018-07-28T12:12:08.361Z,99.90
2018-07-28T12:14:39.924Z,99.90
2018-07-28T12:17:11.471Z,99.90
2018-07-28T12:19:42.730Z,99.90
2018-07-28T12:22:13.901Z,99.90
2018-07-28T12:24:45.103Z,99.90
2018-07-28T12:27:16.350Z,99.90
2018-07-28T12:29:47.642Z,99.90
2018-07-28T12:32:18.875Z,99.90
2018-07-28T12:34:49.991Z,99.90
2018-07-28T12:37:21.154Z,99.90
2018-07-28T12:39:52.387Z,99.90
2018-07-28T12:42:23.959Z,99.90
2018-07-28T12:44:55.302Z,99.90
2018-07-28T12:47:26.511Z,99.90
2018-07-28T12:49:57.782Z,99.90
2018-07-28T12:52:29.126Z,99.90
2018-07-28T12:55:02.191Z,99.90
2018-07-28T12:57:33.532Z,99.90
2018-07-28T13:00:04.986Z,99.90
2018-07-28T13:02:36.471Z,99.90
2018-07-28T13:05:08.950Z,99.90
2018-07-28T13:07:40.562Z,99.90
2018-07-28T13:10:11.906Z,99.90
2018-07-28T13:12:43.178Z,99.90
2018-07-28T13:15:13.859Z,99.90
2018-07-28T13:17:45.255Z,99.90
2018-07-28T13:20:16.608Z,99.90
2018-07-28T13:22:47.798Z,99.90
2018-07-28T13:25:19.019Z,99.90
2018-07-28T13:27:50.376Z,99.90
2018-07-28T13:32:51.994Z,99.90
2018-07-28T13:35:23.326Z,99.90
2018-07-28T13:37:54.607Z,99.90
2018-07-28T13:40:25.883Z,99.90
2018-07-28T13:42:57.110Z,99.90
2018-07-28T13:45:28.493Z,99.90
2018-07-28T13:47:59.723Z,99.90
2018-07-28T13:50:30.929Z,99.90
2018-07-28T13:53:02.250Z,99.90
2018-07-28T13:55:33.520Z,99.90
2018-07-28T13:58:04.700Z,99.90
2018-07-28T14:00:36.203Z,99.90
2018-07-28T14:03:07.419Z,99.90
2018-07-28T14:05:39.466Z,99.90
2018-07-28T14:08:10.982Z,98.20
2018-07-28T14:10:42.407Z,99.90
2018-07-28T14:13:13.618Z,99.90
2018-07-28T14:18:16.043Z,99.90
2018-07-28T14:20:47.497Z,99.90
2018-07-28T14:23:18.815Z,99.90
2018-07-28T14:25:50.086Z,99.10
2018-07-28T14:28:21.196Z,99.90
2018-07-28T14:30:52.622Z,98.70
2018-07-28T14:33:24.075Z,98.00
2018-07-28T14:35:55.382Z,97.10
2018-07-28T14:38:26.551Z,96.20
2018-07-28T14:40:57.831Z,97.40
2018-07-28T14:43:28.969Z,95.50
2018-07-28T14:46:00.303Z,98.20
2018-07-28T14:48:31.623Z,97.60
2018-07-28T14:51:02.919Z,96.50
2018-07-28T14:53:34.203Z,96.50
2018-07-28T14:56:05.508Z,97.40
2018-07-28T14:58:36.873Z,98.70
2018-07-28T15:01:08.113Z,96.70
2018-07-28T15:03:39.405Z,98.10
2018-07-28T15:06:10.800Z,97.50
2018-07-28T15:08:42.174Z,95.90
2018-07-28T15:11:13.503Z,96.70
2018-07-28T15:13:44.790Z,98.30
2018-07-28T15:16:16.302Z,95.40
2018-07-28T15:21:19.503Z,94.40
2018-07-28T15:23:50.826Z,95.10
2018-07-28T15:26:22.084Z,94.30
2018-07-28T15:28:53.493Z,94.80
2018-07-28T15:31:24.892Z,96.70
2018-07-28T15:33:56.139Z,95.70
2018-07-28T15:36:27.452Z,95.70
2018-07-28T15:38:58.650Z,93.50
2018-07-28T15:44:00.117Z,94.30
2018-07-28T15:46:31.336Z,95.30
2018-07-28T15:49:02.666Z,95.40
2018-07-28T15:51:33.879Z,94.70
2018-07-28T15:54:04.986Z,94.80
2018-07-28T15:56:36.079Z,94.70
2018-07-28T15:59:07.181Z,93.50
2018-07-28T16:01:38.263Z,90.60
2018-07-28T16:04:09.504Z,91.70
2018-07-28T16:06:40.661Z,90.70
2018-07-28T16:09:12.241Z,91.60
2018-07-28T16:11:43.487Z,92.70
2018-07-28T16:14:14.654Z,93.60
2018-07-28T16:16:45.819Z,94.00
2018-07-28T16:19:17.058Z,93.60
2018-07-28T16:21:48.213Z,93.90
2018-07-28T16:24:19.548Z,93.40
2018-07-28T16:26:50.665Z,94.50
2018-07-28T16:29:22.183Z,95.10
2018-07-28T16:31:53.821Z,95.90
2018-07-28T16:34:24.951Z,96.10
2018-07-28T16:36:56.236Z,97.60
2018-07-28T16:39:27.253Z,99.90
2018-07-28T16:41:58.411Z,99.90
2018-07-28T16:44:29.650Z,99.90
2018-07-28T16:47:02.412Z,99.90
2018-07-28T16:49:33.658Z,99.90
2018-07-28T16:52:05.040Z,99.90
2018-07-28T16:54:36.295Z,99.90
2018-07-28T16:57:07.836Z,99.90
2018-07-28T16:59:39.029Z,99.90
2018-07-28T17:02:10.259Z,99.90
2018-07-28T17:04:41.549Z,99.90
2018-07-28T17:07:12.919Z,99.90
2018-07-28T17:09:44.168Z,99.90
2018-07-28T17:12:15.484Z,99.90
2018-07-28T17:14:46.623Z,99.90
2018-07-28T17:17:17.831Z,99.90
2018-07-28T17:19:49.052Z,99.90
2018-07-28T17:22:20.279Z,99.90
2018-07-28T17:24:53.667Z,99.90
2018-07-28T17:27:26.314Z,99.90
2018-07-28T17:29:58.427Z,99.20
2018-07-28T17:32:30.102Z,96.60
2018-07-28T17:35:01.250Z,93.70
2018-07-28T17:37:34.472Z,91.50
2018-07-28T17:40:05.860Z,96.50
2018-07-28T17:42:37.158Z,96.20
2018-07-28T17:45:09.796Z,93.60
2018-07-28T17:47:40.975Z,99.60
2018-07-28T17:50:12.461Z,99.90
2018-07-28T17:53:07.293Z,99.90
2018-07-28T17:55:38.703Z,99.90
2018-07-28T17:58:09.940Z,99.90
2018-07-28T18:00:41.147Z,99.90
2018-07-28T18:03:12.572Z,99.90
2018-07-28T18:05:44.051Z,99.90
2018-07-28T18:08:15.481Z,99.90
2018-07-28T18:10:46.630Z,99.90
2018-07-28T18:13:17.892Z,99.90
2018-07-28T18:15:49.442Z,99.90
2018-07-28T18:18:20.744Z,99.90
2018-07-28T18:20:53.144Z,99.90
2018-07-28T18:23:24.245Z,99.90
2018-07-28T18:25:56.208Z,99.90
2018-07-28T18:28:27.484Z,99.90
2018-07-28T18:31:00.039Z,99.90
2018-07-28T18:33:31.656Z,99.90
2018-07-28T18:36:02.852Z,99.90
2018-07-28T18:38:34.036Z,99.90
2018-07-28T18:41:05.204Z,99.90
2018-07-28T18:43:36.402Z,99.90
2018-07-28T18:46:07.587Z,99.90
2018-07-28T18:48:38.917Z,99.90
2018-07-28T18:51:10.050Z,99.90
2018-07-28T18:53:41.166Z,99.90
2018-07-28T18:56:12.229Z,99.90
2018-07-28T18:58:43.423Z,99.90
2018-07-28T19:01:14.614Z,99.90
2018-07-28T19:03:45.883Z,99.90
2018-07-28T19:06:17.623Z,99.90
2018-07-28T19:08:52.530Z,99.90
2018-07-28T19:11:23.698Z,99.90
2018-07-28T19:13:59.483Z,99.90
2018-07-28T19:16:30.662Z,99.90
2018-07-28T19:19:06.574Z,99.90
2018-07-28T19:21:37.890Z,99.90
2018-07-28T19:24:09.059Z,99.90
2018-07-28T19:26:40.515Z,99.90
2018-07-28T19:29:16.401Z,99.90
2018-07-28T19:31:47.762Z,99.90
2018-07-28T19:34:18.846Z,99.90
2018-07-28T19:36:54.687Z,99.90
2018-07-28T19:39:25.764Z,99.90
2018-07-28T19:42:01.586Z,99.90
2018-07-28T19:44:32.815Z,99.90
2018-07-28T19:47:03.964Z,99.90
2018-07-28T19:49:35.211Z,99.70
2018-07-28T19:52:06.535Z,97.60
2018-07-28T19:54:37.718Z,94.50
2018-07-28T19:57:08.846Z,93.00
2018-07-28T19:59:39.998Z,93.70
2018-07-28T20:02:11.147Z,95.50
2018-07-28T20:04:42.315Z,94.00
2018-07-28T20:07:13.448Z,95.30
2018-07-28T20:09:44.540Z,93.90
2018-07-28T20:12:15.743Z,99.10
2018-07-28T20:14:46.807Z,93.40
2018-07-28T20:17:18.010Z,94.20
2018-07-28T20:19:49.214Z,91.40
2018-07-28T20:22:20.464Z,89.80
2018-07-28T20:24:51.721Z,91.50
2018-07-28T20:27:22.820Z,94.70
2018-07-28T20:29:54.005Z,93.00
2018-07-28T20:32:25.306Z,94.80
2018-07-28T20:34:56.425Z,94.30
2018-07-28T20:37:27.765Z,93.20
2018-07-28T20:39:59.018Z,93.90
2018-07-28T20:42:30.292Z,92.20
2018-07-28T20:45:01.643Z,92.60
2018-07-28T20:47:32.923Z,94.90
2018-07-28T20:50:04.092Z,93.70
2018-07-28T20:52:35.370Z,93.10
2018-07-28T20:55:06.667Z,91.30
2018-07-28T20:57:37.915Z,90.60
2018-07-28T21:00:09.137Z,89.30
2018-07-28T21:02:40.439Z,85.80
2018-07-28T21:05:11.822Z,90.10
2018-07-28T21:10:13.374Z,90.60
2018-07-28T21:15:14.957Z,90.10
2018-07-28T21:17:46.331Z,90.10
2018-07-28T21:20:17.611Z,90.80
2018-07-28T21:22:48.910Z,93.10
2018-07-28T21:25:20.324Z,95.00
2018-07-28T21:30:31.069Z,98.40
2018-07-28T21:33:02.375Z,99.90
2018-07-28T21:35:33.652Z,99.90
2018-07-28T21:38:04.836Z,99.90
2018-07-28T21:40:36.155Z,99.90
2018-07-28T21:43:07.392Z,99.90
2018-07-28T21:45:38.562Z,99.90
2018-07-28T21:48:09.845Z,99.90
2018-07-28T21:50:41.247Z,99.90
2018-07-28T21:53:12.344Z,99.90
2018-07-28T21:55:43.513Z,99.90
2018-07-28T21:58:14.727Z,99.90
2018-07-28T22:00:52.026Z,99.90
2018-07-28T22:03:23.279Z,99.90
2018-07-28T22:08:26.241Z,99.90
2018-07-28T22:10:57.419Z,99.90
2018-07-28T22:13:29.051Z,99.90
2018-07-28T22:16:00.379Z,99.90
2018-07-28T22:18:31.636Z,99.90
2018-07-28T22:21:02.956Z,99.90
2018-07-28T22:23:34.249Z,99.90
2018-07-28T22:26:05.668Z,99.90
2018-07-28T22:28:36.849Z,99.90
2018-07-28T22:31:08.163Z,99.90
2018-07-28T22:33:39.322Z,99.90
2018-07-28T22:36:10.513Z,99.90
2018-07-28T22:38:41.695Z,99.90
2018-07-28T22:41:13.011Z,99.90
2018-07-28T22:43:44.388Z,99.90
2018-07-28T22:46:15.640Z,99.90
2018-07-28T22:48:46.884Z,99.90
2018-07-28T22:51:18.426Z,99.90
2018-07-28T22:53:49.578Z,99.90
2018-07-28T22:56:20.708Z,99.90
2018-07-28T22:58:51.741Z,99.90
2018-07-28T23:01:23.090Z,99.90
2018-07-28T23:03:54.341Z,99.90
2018-07-28T23:06:25.504Z,99.90
2018-07-28T23:08:56.788Z,99.90
2018-07-28T23:11:27.919Z,99.90
2018-07-28T23:13:59.145Z,99.90
2018-07-28T23:16:30.259Z,99.90
2018-07-28T23:19:01.401Z,99.90
2018-07-28T23:21:32.645Z,99.90
2018-07-28T23:24:03.695Z,99.90
2018-07-28T23:26:34.937Z,99.90
2018-07-28T23:29:06.110Z,99.90
2018-07-28T23:31:37.274Z,99.90
2018-07-28T23:34:08.474Z,99.90
2018-07-28T23:36:39.618Z,99.90
2018-07-28T23:39:11.214Z,99.90
2018-07-28T23:41:42.187Z,99.90
2018-07-28T23:44:13.398Z,99.90
2018-07-28T23:46:44.647Z,99.90
2018-07-28T23:49:15.766Z,99.90
2018-07-28T23:51:46.876Z,99.90
2018-07-28T23:54:18.066Z,99.90
2018-07-28T23:56:49.162Z,99.90
2018-07-28T23:59:20.516Z,99.90
